Time;durP1;ratioP1;P1;durP2;ratioP2;P2;SDS_P1;SDS_P2;PMS_P1;PMS_P2;Temp;Humidity;BMP_temperature;BMP_pressure;BME280_temperature;BME280_humidity;BME280_pressure;Samples;Min_cycle;Max_cycle;Signal;HPM_P1;HPM_P2
2024/01/30 00:00:43;;;;;;;7.40;3.67;;;9.70;99.90;;;;;;5050640;28;20603;-50
2024/01/30 00:03:09;;;;;;;9.13;4.00;;;9.70;99.90;;;;;;5048826;28;20032;-53
2024/01/30 00:05:35;;;;;;;8.40;4.23;;;9.80;99.90;;;;;;5052092;28;20132;-53
2024/01/30 00:08:00;;;;;;;10.47;4.33;;;9.80;99.90;;;;;;5054616;28;20059;-53
2024/01/30 00:10:26;;;;;;;7.30;3.80;;;9.80;99.90;;;;;;5054513;28;20040;-52
2024/01/30 00:12:52;;;;;;;9.43;4.17;;;9.70;99.90;;;;;;5054525;28;20442;-50
2024/01/30 00:15:18;;;;;;;8.90;4.07;;;9.70;99.90;;;;;;5054687;28;20028;-54
2024/01/30 00:17:43;;;;;;;6.93;3.60;;;9.70;99.90;;;;;;5054448;28;20036;-54
2024/01/30 00:20:09;;;;;;;8.70;3.77;;;9.80;99.90;;;;;;5053256;28;20028;-49
2024/01/30 00:22:35;;;;;;;8.43;4.00;;;9.80;99.90;;;;;;5054729;28;20511;-49
2024/01/30 00:25:01;;;;;;;9.73;3.97;;;9.80;99.90;;;;;;5054432;28;20128;-53
2024/01/30 00:27:27;;;;;;;8.40;3.90;;;9.70;99.90;;;;;;5054776;28;20059;-50
2024/01/30 00:29:53;;;;;;;6.50;3.93;;;9.70;99.90;;;;;;5054529;28;20025;-51
2024/01/30 00:32:19;;;;;;;8.33;4.27;;;9.70;99.90;;;;;;5054271;28;20082;-54
2024/01/30 00:34:44;;;;;;;8.30;4.47;;;9.70;99.90;;;;;;5052704;28;20028;-51
2024/01/30 00:37:10;;;;;;;7.10;3.80;;;9.70;99.90;;;;;;5054086;28;20044;-51
2024/01/30 00:39:36;;;;;;;10.17;4.97;;;9.80;99.90;;;;;;5053952;28;20094;-52
2024/01/30 00:42:01;;;;;;;7.93;3.83;;;9.70;99.90;;;;;;5054359;28;20435;-54
2024/01/30 00:44:27;;;;;;;7.43;4.07;;;9.70;99.90;;;;;;5053775;28;20040;-54
2024/01/30 00:46:53;;;;;;;9.53;4.20;;;9.70;99.90;;;;;;5053950;28;20051;-54
2024/01/30 00:49:19;;;;;;;12.13;4.23;;;9.70;99.90;;;;;;5053826;28;20461;-51
2024/01/30 00:51:44;;;;;;;9.70;4.43;;;9.70;99.90;;;;;;5053995;28;20025;-51
2024/01/30 00:54:10;;;;;;;8.97;4.27;;;9.70;99.90;;;;;;5053570;28;20459;-54
2024/01/30 00:56:35;;;;;;;10.47;4.77;;;9.70;99.90;;;;;;5053881;28;20025;-52
2024/01/30 00:59:01;;;;;;;9.13;4.40;;;9.60;99.90;;;;;;5053710;28;20028;-54
2024/01/30 01:01:27;;;;;;;9.07;4.00;;;9.60;99.90;;;;;;5053652;28;20040;-54
2024/01/30 01:03:52;;;;;;;8.10;4.10;;;9.60;99.90;;;;;;5053430;28;20100;-51
2024/01/30 01:06:18;;;;;;;7.33;4.27;;;9.60;99.90;;;;;;5052233;28;20481;-54
2024/01/30 01:08:43;;;;;;;10.73;4.33;;;9.60;99.90;;;;;;5053491;28;20127;-51
2024/01/30 01:11:09;;;;;;;12.20;4.77;;;9.60;99.90;;;;;;5053521;28;20025;-54
2024/01/30 01:13:35;;;;;;;8.30;4.43;;;9.60;99.90;;;;;;5053347;28;20036;-51
2024/01/30 01:16:00;;;;;;;10.57;3.93;;;9.60;99.90;;;;;;5052951;28;20021;-51
2024/01/30 01:18:27;;;;;;;9.27;3.97;;;9.60;99.90;;;;;;5052240;28;20445;-52
2024/01/30 01:20:52;;;;;;;11.97;4.70;;;9.50;99.90;;;;;;5053598;28;20124;-54
2024/01/30 01:23:18;;;;;;;10.77;4.07;;;9.50;99.90;;;;;;5053448;28;20108;-54
2024/01/30 01:25:44;;;;;;;8.67;3.90;;;9.50;99.90;;;;;;5053523;28;20033;-55
2024/01/30 01:28:10;;;;;;;7.97;4.47;;;9.50;99.90;;;;;;5053314;28;20043;-54
2024/01/30 01:30:35;;;;;;;12.70;4.63;;;9.50;99.90;;;;;;5051497;28;20037;-54
2024/01/30 01:33:02;;;;;;;11.63;4.13;;;9.50;99.90;;;;;;5052872;28;20055;-54
2024/01/30 01:35:28;;;;;;;10.50;4.67;;;9.50;99.90;;;;;;5053145;28;20051;-52
2024/01/30 01:37:59;;;;;;;7.93;4.47;;;9.50;99.90;;;;;;5052953;28;20509;-54
2024/01/30 01:40:26;;;;;;;10.40;4.10;;;9.50;99.90;;;;;;5052800;28;20078;-53
2024/01/30 01:42:53;;;;;;;11.43;4.90;;;9.50;99.90;;;;;;5053009;28;20055;-51
2024/01/30 01:45:19;;;;;;;10.40;4.33;;;9.40;99.90;;;;;;5052632;28;20390;-51
2024/01/30 01:47:47;;;;;;;8.80;4.37;;;9.40;99.90;;;;;;5052834;28;20075;-54
2024/01/30 01:50:18;;;;;;;9.50;4.33;;;9.40;99.90;;;;;;5052521;28;20121;-53
2024/01/30 01:52:44;;;;;;;7.13;3.80;;;9.30;99.90;;;;;;5052811;28;20036;-50
2024/01/30 01:55:11;;;;;;;7.13;4.07;;;9.40;99.90;;;;;;5052558;28;20024;-52
2024/01/30 01:57:37;;;;;;;7.70;4.10;;;9.30;99.90;;;;;;5052349;28;20040;-51
2024/01/30 02:00:04;;;;;;;11.60;4.80;;;9.40;99.90;;;;;;5052223;28;20029;-53
2024/01/30 02:02:36;;;;;;;11.10;4.47;;;9.40;99.90;;;;;;5052565;28;20036;-52
2024/01/30 02:05:02;;;;;;;7.53;4.03;;;9.40;99.90;;;;;;5052083;28;20108;-51
2024/01/30 02:07:30;;;;;;;7.93;4.00;;;9.30;99.90;;;;;;5071054;28;20174;-53
2024/01/30 02:09:56;;;;;;;11.05;4.25;;;9.30;99.90;;;;;;5072108;28;20031;-50
2024/01/30 02:12:22;;;;;;;11.70;5.23;;;9.40;99.90;;;;;;5072468;28;20115;-53
2024/01/30 02:14:48;;;;;;;11.13;4.90;;;9.30;99.90;;;;;;5071981;28;20043;-54
2024/01/30 02:17:15;;;;;;;8.83;4.50;;;9.30;99.90;;;;;;5070786;28;20036;-51
2024/01/30 02:19:41;;;;;;;8.53;4.13;;;9.30;99.90;;;;;;5071758;28;20464;-54
2024/01/30 02:22:07;;;;;;;9.20;4.40;;;9.30;99.90;;;;;;5072034;28;20043;-52
2024/01/30 02:24:33;;;;;;;10.63;4.40;;;9.30;99.90;;;;;;5071499;28;20043;-51
2024/01/30 02:26:59;;;;;;;11.93;5.00;;;9.20;99.90;;;;;;5071861;28;20112;-51
2024/01/30 02:29:24;;;;;;;10.47;4.57;;;9.10;99.90;;;;;;5070764;28;20462;-53
2024/01/30 02:31:50;;;;;;;9.80;4.10;;;9.10;99.90;;;;;;5071639;28;20035;-51
2024/01/30 02:34:16;;;;;;;10.07;4.80;;;9.10;99.90;;;;;;5071435;28;20413;-54
2024/01/30 02:36:45;;;;;;;8.80;4.73;;;9.20;99.90;;;;;;5071762;28;20099;-52
2024/01/30 02:39:10;;;;;;;10.57;5.15;;;9.20;99.90;;;;;;5071422;28;20430;-50
2024/01/30 02:41:36;;;;;;;9.03;4.53;;;9.20;99.90;;;;;;5071680;28;20032;-52
2024/01/30 02:44:03;;;;;;;9.93;4.20;;;9.20;99.90;;;;;;5071595;28;20037;-52
2024/01/30 02:46:29;;;;;;;8.37;4.27;;;9.20;99.90;;;;;;5070296;28;20086;-50
2024/01/30 02:48:55;;;;;;;8.40;3.93;;;9.20;99.90;;;;;;5071629;28;20489;-54
2024/01/30 02:51:20;;;;;;;9.93;4.37;;;9.20;99.90;;;;;;5071739;28;20032;-51
2024/01/30 02:53:46;;;;;;;9.43;4.57;;;9.20;99.90;;;;;;5071439;28;20049;-51
2024/01/30 02:56:13;;;;;;;11.20;4.80;;;9.20;99.90;;;;;;5071785;28;20028;-54
2024/01/30 02:58:40;;;;;;;10.23;4.37;;;9.20;99.90;;;;;;5071540;28;20465;-50
2024/01/30 03:01:06;;;;;;;8.47;3.90;;;9.10;99.90;;;;;;5071814;28;20032;-55
2024/01/30 03:03:31;;;;;;;8.77;4.27;;;9.10;99.90;;;;;;5071463;28;20040;-51
2024/01/30 03:05:57;;;;;;;8.87;4.60;;;9.10;99.90;;;;;;5071341;28;20043;-50
2024/01/30 03:08:23;;;;;;;9.73;4.17;;;9.00;99.90;;;;;;5071185;28;20036;-50
2024/01/30 03:10:48;;;;;;;7.93;3.57;;;9.10;99.90;;;;;;5071297;28;20081;-53
2024/01/30 03:13:14;;;;;;;8.00;4.37;;;9.10;99.90;;;;;;5071218;28;20343;-50
2024/01/30 03:15:40;;;;;;;8.53;4.17;;;9.10;99.90;;;;;;5071627;28;20047;-52
2024/01/30 03:18:05;;;;;;;8.00;4.00;;;9.10;99.90;;;;;;5071597;28;20122;-53
2024/01/30 03:20:31;;;;;;;12.60;4.10;;;9.10;99.90;;;;;;5071032;28;20028;-51
2024/01/30 03:22:59;;;;;;;7.23;3.87;;;9.10;99.90;;;;;;5071191;28;20037;-51
2024/01/30 03:25:25;;;;;;;6.80;3.73;;;9.00;99.90;;;;;;5071027;28;20043;-54
2024/01/30 03:27:51;;;;;;;7.53;3.73;;;9.10;99.90;;;;;;5070829;28;20103;-54
2024/01/30 03:30:17;;;;;;;8.50;4.07;;;9.10;99.90;;;;;;5070454;28;20519;-54
2024/01/30 03:32:43;;;;;;;9.57;4.00;;;9.10;99.90;;;;;;5070599;28;20056;-52
2024/01/30 03:35:09;;;;;;;8.03;4.23;;;9.20;99.90;;;;;;5056262;28;20067;-51
2024/01/30 03:37:35;;;;;;;7.87;4.07;;;9.20;99.90;;;;;;5050439;28;20025;-52
2024/01/30 03:40:02;;;;;;;6.97;4.00;;;9.20;99.90;;;;;;5050369;28;20048;-54
2024/01/30 03:42:28;;;;;;;8.40;3.67;;;9.10;99.90;;;;;;5050748;28;20082;-53
2024/01/30 03:44:54;;;;;;;9.40;4.33;;;9.20;99.90;;;;;;5050374;28;20066;-54
2024/01/30 03:47:20;;;;;;;9.67;4.27;;;9.20;99.90;;;;;;5050580;28;20036;-54
2024/01/30 03:49:46;;;;;;;11.00;3.80;;;9.20;99.90;;;;;;5050590;28;20450;-50
2024/01/30 03:52:12;;;;;;;7.23;3.57;;;9.20;99.90;;;;;;5050628;28;20033;-53
2024/01/30 03:54:37;;;;;;;9.07;3.67;;;9.20;99.90;;;;;;5050396;28;20044;-53
2024/01/30 03:57:03;;;;;;;8.13;4.20;;;9.10;99.90;;;;;;5050591;28;20021;-54
2024/01/30 03:59:29;;;;;;;9.07;3.73;;;9.10;99.90;;;;;;5048974;28;20028;-51
2024/01/30 04:01:55;;;;;;;8.77;3.83;;;9.10;99.90;;;;;;5050672;28;20048;-54
2024/01/30 04:04:21;;;;;;;6.63;3.83;;;9.10;99.90;;;;;;5050225;28;20392;-52
2024/01/30 04:06:47;;;;;;;8.53;4.17;;;9.00;99.90;;;;;;5050385;28;20045;-50
2024/01/30 04:09:13;;;;;;;8.20;3.60;;;9.00;99.90;;;;;;5050170;28;20029;-50
2024/01/30 04:11:42;;;;;;;8.73;4.30;;;9.10;99.90;;;;;;5050494;28;20103;-50
2024/01/30 04:14:08;;;;;;;8.02;3.92;;;9.10;99.90;;;;;;5050264;28;20167;-52
2024/01/30 04:16:34;;;;;;;7.13;3.20;;;9.10;99.90;;;;;;5050307;28;20104;-50
2024/01/30 04:19:00;;;;;;;7.50;3.60;;;9.10;99.90;;;;;;5048881;28;20427;-51
2024/01/30 04:21:25;;;;;;;7.33;3.90;;;9.10;99.90;;;;;;5050211;28;20102;-51
2024/01/30 04:23:51;;;;;;;9.57;4.00;;;9.00;99.90;;;;;;5050174;28;20031;-55
2024/01/30 04:26:17;;;;;;;11.70;4.33;;;9.00;99.90;;;;;;5049963;28;20041;-52
2024/01/30 04:28:44;;;;;;;6.93;3.67;;;8.90;99.90;;;;;;5050223;28;20159;-54
2024/01/30 04:31:10;;;;;;;10.27;4.40;;;9.00;99.90;;;;;;5050173;28;20076;-54
2024/01/30 04:33:36;;;;;;;7.13;3.90;;;9.00;99.90;;;;;;5049916;28;20029;-55
2024/01/30 04:36:03;;;;;;;8.33;3.77;;;9.00;99.90;;;;;;5050007;28;20154;-55
2024/01/30 04:38:28;;;;;;;9.37;4.10;;;8.90;99.90;;;;;;5050050;28;20365;-51
2024/01/30 04:40:54;;;;;;;10.40;4.10;;;8.90;99.90;;;;;;5050051;28;20036;-54
2024/01/30 04:43:20;;;;;;;7.47;3.93;;;8.90;99.90;;;;;;5049671;28;20446;-54
2024/01/30 04:45:45;;;;;;;8.40;4.13;;;8.80;99.90;;;;;;5050053;28;20036;-51
2024/01/30 04:48:11;;;;;;;10.40;3.50;;;8.90;99.90;;;;;;5049828;28;20136;-54
2024/01/30 04:50:36;;;;;;;7.00;3.50;;;8.90;99.90;;;;;;5049612;28;20049;-54
2024/01/30 04:53:02;;;;;;;10.73;4.20;;;8.90;99.90;;;;;;5053155;28;20040;-53
2024/01/30 04:55:28;;;;;;;7.40;3.53;;;8.90;99.90;;;;;;5053358;28;20440;-52
2024/01/30 04:57:53;;;;;;;8.00;3.47;;;9.00;99.90;;;;;;5053479;28;20104;-52
2024/01/30 05:00:19;;;;;;;10.13;3.70;;;9.00;99.90;;;;;;5053509;28;20029;-53
2024/01/30 05:02:45;;;;;;;7.60;4.00;;;9.00;99.90;;;;;;5053539;28;20036;-54
2024/01/30 05:05:11;;;;;;;7.50;3.47;;;9.00;99.90;;;;;;5052980;28;20032;-54
2024/01/30 05:07:39;;;;;;;6.43;3.67;;;8.90;99.90;;;;;;5053047;28;20029;-50
2024/01/30 05:10:04;;;;;;;8.50;4.17;;;9.00;99.90;;;;;;5051867;28;20049;-53
2024/01/30 05:12:30;;;;;;;8.60;3.53;;;9.10;99.90;;;;;;5053124;28;20039;-51
2024/01/30 05:14:56;;;;;;;9.87;3.60;;;9.10;99.90;;;;;;5051485;28;20113;-52
2024/01/30 05:17:21;;;;;;;7.13;3.67;;;9.00;99.90;;;;;;5051811;28;20036;-51
2024/01/30 05:19:47;;;;;;;6.93;3.30;;;9.00;99.90;;;;;;5050983;28;20029;-51
2024/01/30 05:22:15;;;;;;;9.10;3.27;;;9.10;99.90;;;;;;5052705;28;20497;-52
2024/01/30 05:24:42;;;;;;;8.53;3.83;;;9.10;99.90;;;;;;5052172;28;20486;-54
2024/01/30 05:27:08;;;;;;;6.93;2.90;;;9.00;99.90;;;;;;5052490;28;20029;-50
2024/01/30 05:29:34;;;;;;;6.97;3.60;;;9.10;99.90;;;;;;5052289;28;20051;-52
2024/01/30 05:31:59;;;;;;;8.10;3.47;;;9.10;99.90;;;;;;5052908;28;20581;-50
2024/01/30 05:34:25;;;;;;;11.87;4.17;;;9.10;99.90;;;;;;5052774;28;20043;-51
2024/01/30 05:36:50;;;;;;;7.83;3.53;;;9.10;99.90;;;;;;5052800;28;20424;-53
2024/01/30 05:39:16;;;;;;;6.50;3.60;;;9.10;99.90;;;;;;5052183;28;20367;-51
2024/01/30 05:41:41;;;;;;;9.10;4.20;;;9.00;99.90;;;;;;5053039;28;20032;-53
2024/01/30 05:44:07;;;;;;;7.70;3.70;;;9.00;99.90;;;;;;5052336;28;20037;-51
2024/01/30 05:46:33;;;;;;;6.73;3.73;;;9.00;99.90;;;;;;5052192;28;20051;-50
2024/01/30 05:48:59;;;;;;;7.50;3.53;;;9.00;99.90;;;;;;5051970;28;20068;-49
2024/01/30 05:51:25;;;;;;;9.33;3.70;;;9.00;99.90;;;;;;5052478;28;20057;-53
2024/01/30 05:53:50;;;;;;;8.67;3.47;;;9.00;99.90;;;;;;5052433;28;20101;-53
2024/01/30 05:56:16;;;;;;;8.93;3.87;;;9.00;99.90;;;;;;5050807;28;20033;-53
2024/01/30 05:58:43;;;;;;;9.70;3.67;;;9.00;99.90;;;;;;5052052;28;20032;-54
2024/01/30 06:01:09;;;;;;;7.57;3.63;;;9.00;99.90;;;;;;5052476;28;20044;-54
2024/01/30 06:03:34;;;;;;;10.27;3.53;;;9.00;99.90;;;;;;5051041;28;20029;-51
2024/01/30 06:06:00;;;;;;;7.50;3.97;;;9.00;99.90;;;;;;5052246;28;20060;-51
2024/01/30 06:08:26;;;;;;;8.03;3.80;;;9.00;99.90;;;;;;5052194;28;20378;-53
2024/01/30 06:10:52;;;;;;;6.90;3.43;;;8.90;99.90;;;;;;5052089;28;20041;-54
2024/01/30 06:13:17;;;;;;;8.70;3.73;;;8.90;99.90;;;;;;5052012;28;20480;-51
2024/01/30 06:15:43;;;;;;;9.50;3.93;;;9.00;99.90;;;;;;5052285;28;20033;-53
2024/01/30 06:18:08;;;;;;;9.23;3.57;;;9.00;99.90;;;;;;5051187;28;20037;-51
2024/01/30 06:20:34;;;;;;;7.73;3.53;;;9.00;99.90;;;;;;5052466;28;20025;-53
2024/01/30 06:23:00;;;;;;;6.87;3.80;;;9.00;99.90;;;;;;5052214;28;20047;-54
2024/01/30 06:25:26;;;;;;;9.37;3.87;;;8.90;99.90;;;;;;5051480;28;20060;-54
2024/01/30 06:27:51;;;;;;;7.43;3.80;;;8.90;99.90;;;;;;5049503;28;20051;-50
2024/01/30 06:30:18;;;;;;;9.50;4.20;;;9.00;99.90;;;;;;5050681;28;20029;-51
2024/01/30 06:32:44;;;;;;;7.37;3.43;;;9.10;99.90;;;;;;5050494;28;20033;-50
2024/01/30 06:35:10;;;;;;;8.43;3.50;;;9.10;99.90;;;;;;5050810;28;20025;-51
2024/01/30 06:37:36;;;;;;;12.80;3.73;;;9.10;99.90;;;;;;5050765;28;20107;-51
2024/01/30 06:40:04;;;;;;;8.97;3.90;;;9.10;99.90;;;;;;5049133;28;20033;-52
2024/01/30 06:42:30;;;;;;;9.40;4.07;;;9.00;99.90;;;;;;5050701;28;20397;-51
2024/01/30 06:44:56;;;;;;;10.70;4.23;;;9.10;99.90;;;;;;5050330;28;20051;-51
2024/01/30 06:47:21;;;;;;;7.73;4.23;;;9.10;99.90;;;;;;5050375;28;20128;-51
2024/01/30 06:49:47;;;;;;;12.57;4.33;;;9.10;99.90;;;;;;5050080;28;20045;-52
2024/01/30 06:52:13;;;;;;;7.63;3.50;;;9.20;99.90;;;;;;5050542;28;20040;-51
2024/01/30 06:54:39;;;;;;;11.57;5.57;;;9.20;99.90;;;;;;5050294;28;20025;-51
2024/01/30 06:57:08;;;;;;;8.93;4.17;;;9.20;99.90;;;;;;5050414;28;20512;-50
2024/01/30 06:59:34;;;;;;;11.20;5.45;;;9.20;99.90;;;;;;5050297;28;20061;-52
2024/01/30 07:02:00;;;;;;;7.47;3.70;;;9.20;99.90;;;;;;5050551;28;20040;-50
2024/01/30 07:04:26;;;;;;;6.33;3.70;;;9.20;99.90;;;;;;5050040;28;20044;-55
2024/01/30 07:06:53;;;;;;;9.17;3.83;;;9.20;99.90;;;;;;5050219;28;20029;-52
2024/01/30 07:09:18;;;;;;;7.67;4.13;;;9.20;99.90;;;;;;5050931;28;20359;-51
2024/01/30 07:11:44;;;;;;;6.40;3.47;;;9.20;99.90;;;;;;5050483;28;20080;-54
2024/01/30 07:14:10;;;;;;;7.10;3.57;;;9.20;99.90;;;;;;5049470;28;20090;-51
2024/01/30 07:16:36;;;;;;;6.60;3.60;;;9.20;99.90;;;;;;5050461;28;20033;-53
2024/01/30 07:19:02;;;;;;;7.70;3.57;;;9.20;99.90;;;;;;5050161;28;20059;-51
2024/01/30 07:21:28;;;;;;;8.47;3.90;;;9.20;99.90;;;;;;5050299;28;20063;-51
2024/01/30 07:23:57;;;;;;;9.43;4.10;;;9.20;99.90;;;;;;5048475;28;20037;-51
2024/01/30 07:26:23;;;;;;;6.95;3.97;;;9.20;99.90;;;;;;5013089;28;1040424;-51
2024/01/30 07:28:49;;;;;;;8.07;3.97;;;9.20;99.90;;;;;;5050315;28;20140;-50
2024/01/30 07:31:15;;;;;;;7.27;3.37;;;9.20;99.90;;;;;;5050478;28;20083;-51
2024/01/30 07:33:41;;;;;;;9.57;4.20;;;9.30;99.90;;;;;;5050546;28;20449;-53
2024/01/30 07:36:06;;;;;;;9.53;3.60;;;9.30;99.90;;;;;;5050601;28;20033;-50
2024/01/30 07:38:32;;;;;;;7.40;3.53;;;9.20;99.90;;;;;;5050491;28;20462;-51
2024/01/30 07:40:58;;;;;;;7.87;3.47;;;9.20;99.90;;;;;;5050485;28;20028;-54
2024/01/30 07:43:24;;;;;;;8.80;4.03;;;9.30;99.90;;;;;;5050054;28;20427;-51
2024/01/30 07:45:49;;;;;;;7.20;3.80;;;9.30;99.90;;;;;;5050532;28;20116;-51
2024/01/30 07:48:15;;;;;;;6.47;3.50;;;9.30;99.90;;;;;;5050327;28;20029;-49
2024/01/30 07:50:41;;;;;;;7.47;3.97;;;9.40;99.90;;;;;;5050373;28;20119;-51
2024/01/30 07:53:06;;;;;;;8.47;3.67;;;9.40;99.90;;;;;;5050563;28;20040;-52
2024/01/30 07:55:32;;;;;;;11.27;3.77;;;9.40;99.90;;;;;;5050949;28;20025;-51
2024/01/30 07:58:01;;;;;;;10.63;4.57;;;9.50;99.90;;;;;;5050201;28;20407;-51
2024/01/30 08:00:27;;;;;;;7.60;3.78;;;9.50;99.90;;;;;;5054070;28;20427;-51
2024/01/30 08:02:55;;;;;;;8.17;3.57;;;9.50;99.90;;;;;;5050649;28;20045;-51
2024/01/30 08:05:22;;;;;;;6.53;3.40;;;9.50;99.90;;;;;;5049490;28;20126;-50
2024/01/30 08:07:48;;;;;;;8.53;4.13;;;9.50;99.90;;;;;;5048435;28;20467;-50
2024/01/30 08:10:15;;;;;;;7.20;3.70;;;9.50;99.90;;;;;;5047911;28;20098;-50
2024/01/30 08:12:40;;;;;;;10.23;3.80;;;9.60;99.90;;;;;;5048099;28;20488;-51
2024/01/30 08:15:07;;;;;;;6.40;3.40;;;9.60;99.90;;;;;;5048401;28;20112;-51
2024/01/30 08:17:32;;;;;;;10.07;4.00;;;9.60;99.90;;;;;;5049108;28;20037;-53
2024/01/30 08:19:58;;;;;;;7.53;3.67;;;9.60;99.90;;;;;;5048268;28;20028;-49
2024/01/30 08:22:24;;;;;;;10.37;4.37;;;9.70;99.90;;;;;;5049916;28;20036;-49
2024/01/30 08:24:50;;;;;;;6.50;3.60;;;9.70;99.90;;;;;;5050007;28;20041;-50
2024/01/30 08:27:15;;;;;;;7.17;3.37;;;9.70;99.90;;;;;;5047174;28;20025;-50
2024/01/30 08:29:41;;;;;;;9.30;3.33;;;9.80;99.90;;;;;;5051216;28;20492;-51
2024/01/30 08:32:07;;;;;;;6.07;3.60;;;9.70;99.90;;;;;;5050995;28;20072;-54
2024/01/30 08:34:33;;;;;;;9.03;3.87;;;9.80;99.90;;;;;;5050757;28;20122;-50
2024/01/30 08:36:58;;;;;;;9.10;4.07;;;9.80;99.90;;;;;;5050286;28;20033;-54
2024/01/30 08:39:24;;;;;;;8.07;3.90;;;9.80;99.90;;;;;;5050658;28;20055;-50
2024/01/30 08:41:50;;;;;;;9.70;3.63;;;9.80;99.90;;;;;;5053274;28;20029;-51
2024/01/30 08:44:15;;;;;;;6.50;4.00;;;9.80;99.90;;;;;;5053698;28;20025;-54
2024/01/30 08:46:42;;;;;;;10.87;4.97;;;9.90;99.90;;;;;;5054217;28;20033;-55
2024/01/30 08:49:08;;;;;;;8.17;4.57;;;10.00;99.90;;;;;;5053806;28;20033;-55
2024/01/30 08:51:33;;;;;;;8.93;4.80;;;10.00;99.90;;;;;;5053884;28;20032;-54
2024/01/30 08:53:59;;;;;;;7.07;3.73;;;10.00;99.90;;;;;;5051190;28;20032;-53
2024/01/30 08:56:25;;;;;;;7.53;4.27;;;10.10;99.90;;;;;;5053557;28;20029;-53
2024/01/30 08:58:51;;;;;;;6.83;3.50;;;10.10;99.90;;;;;;5052312;28;20119;-51
2024/01/30 09:01:17;;;;;;;8.93;3.97;;;10.10;99.90;;;;;;5053687;28;20029;-51
2024/01/30 09:03:45;;;;;;;14.20;5.17;;;10.10;99.90;;;;;;5054328;28;20033;-53
2024/01/30 09:06:11;;;;;;;13.30;4.60;;;10.10;99.90;;;;;;5054198;28;20648;-55
2024/01/30 09:08:37;;;;;;;10.63;3.90;;;10.10;99.90;;;;;;5054573;28;20443;-54
2024/01/30 09:11:13;;;;;;;8.07;3.60;;;10.10;99.90;;;;;;5053551;28;20036;-55
2024/01/30 09:13:38;;;;;;;6.30;3.60;;;10.10;99.90;;;;;;5052950;28;20031;-53
2024/01/30 09:16:04;;;;;;;8.17;3.60;;;10.10;99.90;;;;;;5052966;28;20025;-53
2024/01/30 09:18:30;;;;;;;9.13;3.47;;;10.20;99.90;;;;;;5053124;28;20025;-55
2024/01/30 09:20:56;;;;;;;11.60;4.43;;;10.20;99.90;;;;;;5053097;28;20025;-55
2024/01/30 09:23:21;;;;;;;7.57;3.87;;;10.30;99.90;;;;;;5052943;28;20430;-51
2024/01/30 09:25:47;;;;;;;8.87;3.47;;;10.30;99.90;;;;;;5053596;28;20021;-54
2024/01/30 09:28:13;;;;;;;8.10;3.63;;;10.30;99.90;;;;;;5054551;28;20497;-55
2024/01/30 09:30:38;;;;;;;10.60;3.63;;;10.40;99.90;;;;;;5054519;28;20112;-54
2024/01/30 09:33:06;;;;;;;7.90;3.50;;;10.60;99.90;;;;;;5054357;28;20079;-55
2024/01/30 09:35:32;;;;;;;8.77;4.43;;;10.70;99.90;;;;;;5054520;28;20025;-55
2024/01/30 09:37:58;;;;;;;11.00;5.67;;;11.00;99.90;;;;;;5052647;28;20065;-52
2024/01/30 09:40:24;;;;;;;9.23;4.67;;;11.20;99.90;;;;;;5054304;28;20086;-54
2024/01/30 09:42:53;;;;;;;9.00;4.83;;;11.50;99.90;;;;;;5054390;28;20055;-55
2024/01/30 09:45:19;;;;;;;10.80;3.90;;;11.60;99.90;;;;;;5054336;28;20082;-55
2024/01/30 09:47:46;;;;;;;9.07;4.10;;;11.80;99.90;;;;;;5054297;28;20119;-52
2024/01/30 09:50:13;;;;;;;7.00;3.60;;;11.80;99.90;;;;;;5054063;28;20431;-55
2024/01/30 09:52:39;;;;;;;11.63;3.83;;;11.70;99.90;;;;;;5053930;28;20025;-54
2024/01/30 09:55:05;;;;;;;8.50;3.80;;;11.70;99.90;;;;;;5054183;28;20673;-55
2024/01/30 09:57:31;;;;;;;6.93;3.60;;;11.80;99.90;;;;;;5054093;28;20377;-54
2024/01/30 09:59:57;;;;;;;8.87;4.30;;;12.00;99.90;;;;;;5052679;28;20036;-55
2024/01/30 10:02:23;;;;;;;18.10;5.00;;;12.20;99.90;;;;;;5054097;28;20029;-54
2024/01/30 10:04:50;;;;;;;14.17;4.53;;;12.20;99.90;;;;;;5052687;28;20041;-55
2024/01/30 10:07:17;;;;;;;9.17;3.60;;;12.10;99.90;;;;;;5053807;28;20474;-54
2024/01/30 10:09:43;;;;;;;8.70;4.10;;;12.10;99.90;;;;;;5053835;28;20032;-55
2024/01/30 10:12:12;;;;;;;9.30;4.03;;;12.10;99.90;;;;;;5053756;28;20033;-55
2024/01/30 10:14:42;;;;;;;9.40;3.70;;;12.10;99.90;;;;;;5053791;28;20103;-55
2024/01/30 10:17:09;;;;;;;9.97;3.70;;;12.10;99.90;;;;;;5053754;28;20033;-55
2024/01/30 10:19:35;;;;;;;8.07;4.07;;;12.00;99.90;;;;;;5053656;28;20029;-54
2024/01/30 10:22:01;;;;;;;8.20;3.30;;;12.00;99.90;;;;;;5053800;28;20464;-54
2024/01/30 10:24:27;;;;;;;9.50;3.90;;;11.90;99.90;;;;;;5053669;28;20029;-51
2024/01/30 10:26:53;;;;;;;8.07;3.97;;;11.90;99.90;;;;;;5053564;28;20045;-55
2024/01/30 10:29:19;;;;;;;7.80;3.80;;;11.80;99.90;;;;;;5053361;28;20033;-55
2024/01/30 10:31:44;;;;;;;10.63;3.93;;;11.80;99.90;;;;;;5053496;28;20056;-54
2024/01/30 10:34:10;;;;;;;10.47;3.93;;;11.80;99.90;;;;;;5053241;28;20029;-54
2024/01/30 10:36:43;;;;;;;10.37;4.37;;;11.80;99.90;;;;;;5053163;28;20029;-53
2024/01/30 10:39:09;;;;;;;9.30;4.30;;;11.90;99.90;;;;;;5053277;28;20044;-53
2024/01/30 10:41:43;;;;;;;10.13;5.23;;;11.90;99.90;;;;;;5053297;28;20033;-55
2024/01/30 10:44:10;;;;;;;9.00;4.10;;;11.90;99.90;;;;;;5053317;28;20033;-54
2024/01/30 10:46:38;;;;;;;8.23;4.10;;;11.90;99.90;;;;;;5053313;28;20033;-54
2024/01/30 10:49:04;;;;;;;10.17;4.40;;;12.00;99.90;;;;;;5052841;28;20037;-55
2024/01/30 10:51:31;;;;;;;9.97;4.40;;;12.00;99.90;;;;;;5053043;28;20033;-54
2024/01/30 10:53:57;;;;;;;12.50;5.47;;;12.00;99.90;;;;;;5053026;28;20083;-53
2024/01/30 10:56:24;;;;;;;9.17;4.53;;;12.00;99.90;;;;;;5052868;28;20021;-54
2024/01/30 10:58:55;;;;;;;9.57;4.37;;;12.00;99.90;;;;;;5053053;28;20029;-53
2024/01/30 11:01:22;;;;;;;6.83;4.03;;;11.90;99.90;;;;;;5052986;28;20542;-52
2024/01/30 11:03:52;;;;;;;10.87;4.40;;;11.90;99.90;;;;;;5052733;28;20040;-54
2024/01/30 11:06:18;;;;;;;8.60;4.33;;;12.10;99.90;;;;;;5052711;28;20063;-53
2024/01/30 11:08:45;;;;;;;9.00;4.23;;;12.10;99.90;;;;;;5052766;28;20078;-54
2024/01/30 11:11:10;;;;;;;10.97;4.93;;;12.20;99.90;;;;;;5052609;28;20095;-53
2024/01/30 11:13:36;;;;;;;9.33;4.33;;;12.30;99.90;;;;;;5052630;28;20363;-54
2024/01/30 11:16:03;;;;;;;9.43;4.43;;;12.30;99.90;;;;;;5052389;28;20036;-54
2024/01/30 11:18:33;;;;;;;8.87;4.10;;;12.30;99.90;;;;;;5052718;28;20398;-51
2024/01/30 11:21:01;;;;;;;9.20;4.13;;;12.30;99.90;;;;;;5052425;28;20386;-54
2024/01/30 11:23:28;;;;;;;8.30;4.43;;;12.30;99.90;;;;;;5052386;28;20029;-54
2024/01/30 11:25:54;;;;;;;10.17;4.70;;;12.30;99.90;;;;;;5052230;28;20123;-53
2024/01/30 11:28:21;;;;;;;10.60;3.97;;;12.30;99.90;;;;;;5052325;28;20021;-54
2024/01/30 11:30:50;;;;;;;14.80;4.90;;;12.30;99.90;;;;;;5050982;28;20036;-55
2024/01/30 11:33:27;;;;;;;8.18;4.13;;;12.30;99.90;;;;;;5052241;28;20037;-54
2024/01/30 11:35:53;;;;;;;10.27;4.73;;;12.30;99.90;;;;;;5050935;28;20037;-54
2024/01/30 11:38:18;;;;;;;7.73;4.13;;;12.30;99.90;;;;;;5052201;28;20037;-53
2024/01/30 11:40:44;;;;;;;7.77;3.90;;;12.20;99.90;;;;;;5052169;28;20474;-50
2024/01/30 11:43:10;;;;;;;9.93;4.60;;;12.10;99.90;;;;;;5052254;28;20025;-50
2024/01/30 11:45:36;;;;;;;10.33;4.60;;;12.10;99.90;;;;;;5052482;28;20037;-54
2024/01/30 11:48:07;;;;;;;9.83;4.33;;;12.00;99.90;;;;;;5050967;28;20397;-53
2024/01/30 11:50:33;;;;;;;9.80;4.80;;;11.90;99.90;;;;;;5052061;28;20437;-54
2024/01/30 11:53:00;;;;;;;9.73;4.33;;;11.90;99.90;;;;;;5054228;28;20037;-53
2024/01/30 11:55:26;;;;;;;10.43;4.93;;;11.90;99.90;;;;;;5060537;28;20025;-54
2024/01/30 11:57:55;;;;;;;11.50;4.90;;;11.90;99.90;;;;;;5054993;28;20119;-55
2024/01/30 12:00:21;;;;;;;9.20;5.30;;;11.90;99.90;;;;;;5051933;28;20029;-52
2024/01/30 12:02:59;;;;;;;11.43;4.60;;;11.90;99.90;;;;;;5051649;28;20544;-55
2024/01/30 12:05:26;;;;;;;12.33;5.30;;;11.90;99.90;;;;;;5052216;28;20450;-55
2024/01/30 12:07:52;;;;;;;9.60;4.53;;;12.00;99.90;;;;;;5052011;28;20025;-53
2024/01/30 12:10:17;;;;;;;9.07;4.93;;;12.00;99.90;;;;;;5052061;28;20401;-53
2024/01/30 12:12:47;;;;;;;10.73;5.00;;;11.90;99.90;;;;;;5051834;28;20048;-53
2024/01/30 12:15:13;;;;;;;12.50;4.38;;;11.90;99.90;;;;;;5052052;28;20029;-55
2024/01/30 12:17:39;;;;;;;8.77;4.20;;;12.00;99.90;;;;;;5050312;28;20131;-51
2024/01/30 12:20:08;;;;;;;11.47;5.57;;;12.00;99.90;;;;;;5051793;28;20044;-51
2024/01/30 12:22:41;;;;;;;9.88;4.10;;;11.90;99.90;;;;;;5051845;28;20384;-54
2024/01/30 12:25:15;;;;;;;7.63;4.17;;;12.00;99.90;;;;;;5051849;28;20048;-56
2024/01/30 12:27:44;;;;;;;8.70;3.90;;;12.00;99.90;;;;;;5051768;28;20040;-55
2024/01/30 12:30:12;;;;;;;10.80;4.22;;;12.10;99.90;;;;;;5050403;28;20051;-53
2024/01/30 12:32:43;;;;;;;10.13;4.00;;;12.10;99.90;;;;;;5051710;28;20068;-55
2024/01/30 12:35:14;;;;;;;11.73;4.47;;;12.10;99.90;;;;;;5051667;28;20052;-54
2024/01/30 12:37:40;;;;;;;9.50;4.17;;;12.10;99.90;;;;;;5051682;28;20044;-56
2024/01/30 12:40:08;;;;;;;9.70;4.23;;;12.10;99.90;;;;;;5051640;28;20374;-55
2024/01/30 12:42:33;;;;;;;10.77;4.27;;;12.10;99.90;;;;;;5051651;28;20107;-54
2024/01/30 12:44:59;;;;;;;11.33;4.13;;;12.00;99.90;;;;;;5051813;28;20508;-55